KPRG

Edgar County Airport

Paris, Illinois, USA
METAR KPRG 202335Z AUTO 18006KT 10SM CLR 25/21 A2980 RMK AO2 T02500212
Observed Flight Rules
Aug-20 @ 23:35 UTC (35 minutes ago) Visual Flight Rules
Wind Visibility Clouds
180° at 6 knots 10 miles
  • Clear skies
Temperatures Readings
Current 25°C / 77°F
Dewpoint 21°C / 70°F
Humidity 79%
Altimeter 29.8" Hg
Pressure 1009 hPa
Elevation 199
METAR KPRG 202335Z AUTO 18006KT 10SM CLR 25/21 A2980 RMK AO2 T02500212
Observed Flight Rules
Aug-20 @ 23:35 UTC
(35 minutes ago)
VFR
Wind Visibility
180° at 6 knots 10 miles
Clouds
  • Clear skies
Temperature Dewpoint
25°C / 77°F 21°C / 70°F
Humidity Altimeter Pressure
79% 29.8" Hg 1009 hPa